Minneapolis, MN

11:50 PM CST on February 26, 2017 (GMT -0600)
RBC Plaza Weather | | Change Station

Elev 853 ft 44.98 °N, 93.27 °W | Updated 57 seconds ago

Overcast
Overcast
27.9 °F
Feels Like 21 °F
N
6.0
Wind Variable Wind from South

Today
High -- | Low -- °F
--% Chance of Precip.
Yesterday
High -- | Low -- °F
Precip. -- in
Pressure 29.97 in
Visibility 10.0 miles
Clouds Overcast 3700 ft
Windchill 21 °F
Dew Point 16 °F
Humidity 61%
Rainfall 0.00 in
Snow Depth Not available.
6:55 AM 5:56 PM
New Moon, 0% visible
METAR KMIC 270453Z 17003KT 10SM OVC037 M02/M10 A2994 RMK AO2 SLP148 T10221100
Pressure 29.97 in
Visibility 10.0 miles
Clouds Overcast 3700 ft
Windchill 21 °F
Dew Point 16 °F
Humidity 61%
Rainfall 0.00 in
Snow Depth Not available.
6:55 AM 5:56 PM
New Moon, 0% visible
METAR KMIC 270453Z 17003KT 10SM OVC037 M02/M10 A2994 RMK AO2 SLP148 T10221100

Get Your Daily Forecast Email!

Thanks for signing up!

Be on the lookout for a verification email in your inbox.

You'll start receiving the daily forecast at 8 AM.

×

10-Day Weather Forecast

Almanac

Astronomy

Feb. 26, 2017 Rise Set
Actual Time
Civil Twilight
Nautical Twilight
Astronomical Twilight
Moon
Length of Visible Light
Length of Day
Tomorrow will be .
, % of the Moon is Illuminated

Today's Extremes

State Highs State Lows

Community

WunderPhotos

Upload Photos

1,962,540 photos uploaded!

WunderBlog® & News

Nearby

Air Quality

  Air Quality AQ Index Pollutant
Not available.

Snow Depth

Station Depth Elevation

Earthquake Activity

City Distance Mag. Time & Date
Minimum magnitude displayed is 2.5.

Coastal Water Temperatures

Place Temperature

Stations

Nearby Weather Stations

Station Location Temp. Windchill Dew Point Humidity Wind Precip. Elev Updated Type
                   

Watches & Warnings

There are currently no watches in effect.